createdAt,value
2022-08-17T00:00:43.957Z,18.89
2022-08-17T00:01:24.116Z,18.86
2022-08-17T00:02:25.582Z,18.80
2022-08-17T00:03:23.818Z,18.75
2022-08-17T00:04:23.255Z,18.81
2022-08-17T00:05:23.411Z,18.73
2022-08-17T00:06:23.284Z,18.74
2022-08-17T00:07:23.265Z,18.70
2022-08-17T00:08:23.315Z,18.62
2022-08-17T00:09:23.495Z,18.70
2022-08-17T00:10:23.277Z,18.60
2022-08-17T00:11:23.665Z,18.60
2022-08-17T00:12:43.549Z,18.68
2022-08-17T00:13:23.379Z,18.63
2022-08-17T00:14:23.232Z,18.60
2022-08-17T00:15:23.219Z,18.50
2022-08-17T00:16:23.215Z,18.50
2022-08-17T00:17:23.331Z,18.56
2022-08-17T00:19:02.079Z,18.56
2022-08-17T00:19:23.350Z,18.59
2022-08-17T00:20:23.420Z,18.52
2022-08-17T00:21:23.918Z,18.49
2022-08-17T00:22:32.857Z,18.45
2022-08-17T00:23:23.654Z,18.47
2022-08-17T00:24:23.311Z,18.52
2022-08-17T00:25:23.338Z,18.43
2022-08-17T00:26:44.575Z,18.50
2022-08-17T00:27:23.142Z,18.44
2022-08-17T00:28:23.235Z,18.38
2022-08-17T00:29:23.132Z,18.44
2022-08-17T00:30:23.128Z,18.37
2022-08-17T00:31:23.353Z,18.37
2022-08-17T00:33:12.189Z,18.37
2022-08-17T00:33:23.677Z,18.35
2022-08-17T00:35:23.199Z,18.38
2022-08-17T00:36:23.114Z,18.37
2022-08-17T00:37:23.385Z,18.37
2022-08-17T00:38:23.152Z,18.38
2022-08-17T00:39:23.668Z,18.26
2022-08-17T00:40:24.757Z,18.31
2022-08-17T00:41:23.131Z,18.26
2022-08-17T00:42:26.367Z,18.25
2022-08-17T00:43:23.089Z,18.26
2022-08-17T00:44:23.314Z,18.25
2022-08-17T00:45:23.573Z,18.26
2022-08-17T00:46:23.312Z,18.26
2022-08-17T00:47:23.401Z,18.23
2022-08-17T00:48:29.134Z,18.16
2022-08-17T00:49:23.185Z,18.19
2022-08-17T00:50:23.254Z,18.23
2022-08-17T00:51:23.071Z,18.26
2022-08-17T00:52:23.036Z,18.16
2022-08-17T00:53:23.033Z,18.25
2022-08-17T00:54:23.235Z,18.31
2022-08-17T00:55:23.210Z,18.35
2022-08-17T00:56:23.236Z,18.34
2022-08-17T00:57:23.031Z,18.41
2022-08-17T00:58:28.684Z,18.44
2022-08-17T00:59:22.989Z,18.45
2022-08-17T01:00:23.297Z,18.55
2022-08-17T01:01:23.339Z,18.53
2022-08-17T01:02:22.989Z,18.53
2022-08-17T01:03:22.972Z,18.59
2022-08-17T01:04:23.164Z,18.53
2022-08-17T01:05:22.979Z,18.50
2022-08-17T01:06:22.966Z,18.53
2022-08-17T01:07:22.965Z,18.55
2022-08-17T01:08:23.002Z,18.52
2022-08-17T01:09:22.969Z,18.53
2022-08-17T01:10:58.349Z,18.56
2022-08-17T01:11:22.984Z,18.56
2022-08-17T01:12:23.500Z,18.58
2022-08-17T01:13:23.371Z,18.53
2022-08-17T01:14:23.217Z,18.52
2022-08-17T01:15:23.199Z,18.43
2022-08-17T01:16:22.935Z,18.45
2022-08-17T01:17:22.944Z,18.47
2022-08-17T01:18:22.902Z,18.43
2022-08-17T01:19:22.909Z,18.43
2022-08-17T01:20:22.898Z,18.44
2022-08-17T01:21:22.877Z,18.44
2022-08-17T01:22:22.934Z,18.40
2022-08-17T01:23:22.872Z,18.43
2022-08-17T01:24:22.866Z,18.49
2022-08-17T01:25:22.859Z,18.43
2022-08-17T01:26:22.873Z,18.49
2022-08-17T01:27:22.859Z,18.66
2022-08-17T01:28:52.299Z,18.59
2022-08-17T01:29:22.859Z,18.56
2022-08-17T01:30:57.047Z,18.62
2022-08-17T01:31:22.900Z,18.66
2022-08-17T01:32:22.911Z,18.62
2022-08-17T01:33:23.074Z,18.56
2022-08-17T01:34:22.890Z,18.66
2022-08-17T01:35:23.246Z,18.60
2022-08-17T01:36:22.862Z,18.62
2022-08-17T01:37:22.836Z,18.66
2022-08-17T01:38:26.010Z,18.60
2022-08-17T01:39:22.864Z,18.60
2022-08-17T01:40:22.868Z,18.66
2022-08-17T01:41:22.866Z,18.60
2022-08-17T01:42:22.822Z,18.59
2022-08-17T01:43:22.779Z,18.68
2022-08-17T01:44:22.820Z,18.62
2022-08-17T01:45:22.771Z,18.68
2022-08-17T01:46:22.753Z,18.58
2022-08-17T01:47:23.209Z,18.65
2022-08-17T01:48:22.743Z,18.66
2022-08-17T01:49:22.737Z,18.59
2022-08-17T01:50:22.786Z,18.62
2022-08-17T01:51:22.734Z,18.53
2022-08-17T01:52:22.736Z,18.58
2022-08-17T01:53:22.738Z,18.40
2022-08-17T01:54:22.734Z,18.43
2022-08-17T01:55:27.235Z,18.41
2022-08-17T01:56:22.728Z,18.40
2022-08-17T01:57:22.737Z,18.31
2022-08-17T01:58:22.722Z,18.29
2022-08-17T01:59:22.685Z,18.25
2022-08-17T02:00:22.711Z,18.23
2022-08-17T02:01:22.777Z,18.18
2022-08-17T02:02:31.051Z,18.15
2022-08-17T02:03:22.676Z,18.13
2022-08-17T02:04:22.918Z,18.04
2022-08-17T02:05:22.669Z,18.11
2022-08-17T02:06:27.525Z,17.98
2022-08-17T02:07:26.075Z,18.04
2022-08-17T02:08:37.198Z,17.85
2022-08-17T02:09:24.073Z,17.94
2022-08-17T02:10:22.670Z,17.82
2022-08-17T02:11:22.629Z,17.80
2022-08-17T02:12:38.381Z,17.71
2022-08-17T02:13:22.619Z,17.74
2022-08-17T02:14:22.634Z,17.74
2022-08-17T02:15:22.622Z,17.67
2022-08-17T02:16:22.617Z,17.65
2022-08-17T02:17:22.599Z,17.59
2022-08-17T02:18:22.625Z,17.63
2022-08-17T02:19:22.602Z,17.56
2022-08-17T02:20:42.496Z,17.60
2022-08-17T02:21:22.591Z,17.60
2022-08-17T02:22:22.582Z,17.59
2022-08-17T02:23:22.584Z,17.64
2022-08-17T02:24:58.570Z,17.56
2022-08-17T02:25:22.552Z,17.56
2022-08-17T02:26:25.541Z,17.57
2022-08-17T02:27:22.594Z,17.51
2022-08-17T02:28:22.571Z,17.56
2022-08-17T02:29:23.018Z,17.54
2022-08-17T02:30:59.618Z,17.57
2022-08-17T02:31:22.720Z,17.54
2022-08-17T02:32:27.644Z,17.44
2022-08-17T02:33:22.541Z,17.45
2022-08-17T02:34:22.601Z,17.46
2022-08-17T02:35:22.547Z,17.46
2022-08-17T02:36:26.896Z,17.39
2022-08-17T02:37:22.634Z,17.42
2022-08-17T02:38:22.543Z,17.39
2022-08-17T02:39:22.703Z,17.38
2022-08-17T02:40:35.880Z,17.44
2022-08-17T02:41:22.816Z,17.39
2022-08-17T02:42:22.635Z,17.41
2022-08-17T02:43:22.583Z,17.39
2022-08-17T02:44:39.199Z,17.36
2022-08-17T02:45:22.540Z,17.36
2022-08-17T02:46:22.692Z,17.36
2022-08-17T02:47:22.565Z,17.42
2022-08-17T02:48:30.813Z,17.39
2022-08-17T02:49:22.523Z,17.46
2022-08-17T02:50:22.499Z,17.41
2022-08-17T02:51:22.556Z,17.46
2022-08-17T02:52:43.162Z,17.42
2022-08-17T02:53:22.413Z,17.45
2022-08-17T02:54:41.680Z,17.42
2022-08-17T02:55:22.674Z,17.42
2022-08-17T02:57:22.514Z,17.39
2022-08-17T02:58:29.635Z,17.45
2022-08-17T02:59:22.423Z,17.59
2022-08-17T03:00:22.406Z,17.51
2022-08-17T03:01:22.759Z,17.56
2022-08-17T03:02:22.993Z,17.67
2022-08-17T03:03:22.501Z,17.67
2022-08-17T03:04:22.400Z,17.59
2022-08-17T03:05:22.408Z,17.54
2022-08-17T03:06:22.362Z,17.63
2022-08-17T03:07:22.646Z,17.65
2022-08-17T03:08:22.418Z,17.57
2022-08-17T03:09:22.333Z,17.59
2022-08-17T03:10:22.439Z,17.63
2022-08-17T03:11:22.573Z,17.68
2022-08-17T03:12:22.458Z,17.71
2022-08-17T03:13:22.498Z,17.70
2022-08-17T03:14:26.148Z,17.67
2022-08-17T03:16:22.329Z,17.72
2022-08-17T03:17:22.392Z,17.74
2022-08-17T03:18:24.918Z,17.76
2022-08-17T03:19:22.374Z,17.70
2022-08-17T03:20:22.539Z,17.64
2022-08-17T03:21:22.432Z,17.70
2022-08-17T03:22:36.426Z,17.68
2022-08-17T03:23:24.018Z,17.65
2022-08-17T03:24:28.654Z,17.59
2022-08-17T03:25:22.646Z,17.60
2022-08-17T03:26:22.419Z,17.57
2022-08-17T03:27:22.364Z,17.65
2022-08-17T03:28:22.488Z,17.59
2022-08-17T03:29:22.462Z,17.65
2022-08-17T03:30:22.212Z,17.56
2022-08-17T03:31:22.214Z,17.57
2022-08-17T03:32:22.205Z,17.60
2022-08-17T03:33:22.460Z,17.56
2022-08-17T03:34:22.331Z,17.48
2022-08-17T03:35:22.290Z,17.49
2022-08-17T03:36:22.245Z,17.42
2022-08-17T03:37:22.241Z,17.42
2022-08-17T03:38:22.404Z,17.42
2022-08-17T03:39:22.241Z,17.46
2022-08-17T03:40:39.865Z,17.41
2022-08-17T03:41:22.309Z,17.41
2022-08-17T03:42:32.564Z,17.33
2022-08-17T03:43:22.383Z,17.23
2022-08-17T03:44:22.329Z,17.20
2022-08-17T03:45:22.224Z,17.22
2022-08-17T03:46:34.568Z,17.19
2022-08-17T03:47:22.267Z,17.16
2022-08-17T03:48:22.229Z,17.23
2022-08-17T03:49:22.212Z,17.15
2022-08-17T03:50:22.158Z,17.12
2022-08-17T03:51:22.415Z,17.12
2022-08-17T03:52:22.183Z,17.12
2022-08-17T03:53:22.173Z,17.06
2022-08-17T03:54:22.229Z,17.12
2022-08-17T03:55:22.323Z,17.08
2022-08-17T03:56:22.235Z,17.15
2022-08-17T03:57:22.238Z,17.08
2022-08-17T03:58:22.262Z,17.09
2022-08-17T03:59:22.537Z,17.09
2022-08-17T04:00:22.344Z,17.15
2022-08-17T04:01:22.372Z,17.24
2022-08-17T04:02:22.204Z,17.20
2022-08-17T04:03:22.180Z,17.20
2022-08-17T04:04:27.764Z,17.15
2022-08-17T04:05:22.184Z,17.20
2022-08-17T04:06:22.492Z,17.23
2022-08-17T04:07:22.198Z,17.20
2022-08-17T04:08:22.028Z,17.15
2022-08-17T04:09:22.110Z,17.23
2022-08-17T04:10:26.294Z,17.22
2022-08-17T04:11:22.069Z,17.27
2022-08-17T04:12:22.179Z,17.22
2022-08-17T04:13:24.209Z,17.23
2022-08-17T04:14:22.045Z,17.27
2022-08-17T04:15:22.016Z,17.20
2022-08-17T04:16:22.134Z,17.20
2022-08-17T04:17:22.245Z,17.26
2022-08-17T04:18:22.139Z,17.23
2022-08-17T04:19:22.063Z,17.20
2022-08-17T04:20:22.120Z,17.29
2022-08-17T04:21:21.956Z,17.30
2022-08-17T04:22:31.454Z,17.36
2022-08-17T04:23:21.941Z,17.44
2022-08-17T04:24:22.010Z,17.45
2022-08-17T04:25:22.668Z,17.45
2022-08-17T04:26:53.102Z,17.52
2022-08-17T04:27:22.186Z,17.65
2022-08-17T04:28:21.935Z,17.65
2022-08-17T04:29:21.904Z,17.71
2022-08-17T04:30:22.235Z,17.79
2022-08-17T04:31:21.926Z,17.85
2022-08-17T04:32:25.144Z,17.97
2022-08-17T04:33:21.915Z,17.95
2022-08-17T04:34:22.215Z,18.22
2022-08-17T04:35:21.936Z,18.25
2022-08-17T04:36:22.010Z,18.37
2022-08-17T04:37:21.982Z,18.53
2022-08-17T04:38:21.912Z,18.59
2022-08-17T04:39:22.239Z,18.83
2022-08-17T04:40:22.021Z,18.93
2022-08-17T04:41:22.069Z,18.90
2022-08-17T04:42:21.962Z,18.88
2022-08-17T04:43:22.062Z,18.95
2022-08-17T04:44:37.012Z,18.88
2022-08-17T04:45:21.976Z,18.80
2022-08-17T04:46:21.883Z,18.71
2022-08-17T04:47:22.446Z,18.66
2022-08-17T04:48:22.185Z,18.65
2022-08-17T04:49:22.027Z,18.66
2022-08-17T04:50:21.790Z,18.70
2022-08-17T04:51:21.824Z,18.63
2022-08-17T04:52:32.242Z,18.75
2022-08-17T04:53:22.146Z,18.62
2022-08-17T04:54:22.029Z,18.62
2022-08-17T04:55:22.190Z,18.62
2022-08-17T04:56:21.935Z,18.58
2022-08-17T04:57:21.890Z,18.62
2022-08-17T04:58:22.369Z,18.63
2022-08-17T04:59:21.869Z,18.55
2022-08-17T05:00:22.522Z,18.63
2022-08-17T05:01:23.946Z,18.68
2022-08-17T05:02:21.823Z,18.58
2022-08-17T05:03:21.787Z,18.68
2022-08-17T05:04:34.559Z,18.71
2022-08-17T05:05:21.725Z,18.65
2022-08-17T05:06:21.886Z,18.70
2022-08-17T05:07:24.627Z,18.83
2022-08-17T05:08:21.864Z,18.88
2022-08-17T05:09:21.998Z,18.93
2022-08-17T05:10:21.852Z,18.95
2022-08-17T05:11:21.899Z,18.77
2022-08-17T05:12:22.034Z,18.92
2022-08-17T05:13:21.691Z,18.95
2022-08-17T05:14:21.755Z,19.00
2022-08-17T05:15:21.767Z,18.93
2022-08-17T05:16:22.117Z,18.89
2022-08-17T05:17:21.875Z,19.00
2022-08-17T05:18:21.927Z,19.08
2022-08-17T05:19:21.656Z,19.16
2022-08-17T05:20:21.695Z,19.16
2022-08-17T05:21:21.731Z,19.15
2022-08-17T05:22:21.698Z,18.98
2022-08-17T05:23:21.725Z,18.80
2022-08-17T05:24:40.726Z,18.81
2022-08-17T05:25:25.525Z,18.77
2022-08-17T05:26:26.110Z,18.86
2022-08-17T05:27:21.617Z,19.00
2022-08-17T05:28:24.170Z,19.11
2022-08-17T05:29:21.750Z,19.15
2022-08-17T05:30:21.687Z,19.27
2022-08-17T05:31:21.733Z,19.30
2022-08-17T05:32:38.770Z,19.41
2022-08-17T05:33:21.646Z,19.48
2022-08-17T05:34:21.792Z,19.62
2022-08-17T05:35:21.628Z,19.63
2022-08-17T05:36:43.621Z,19.56
2022-08-17T05:37:21.595Z,19.63
2022-08-17T05:38:21.849Z,19.62
2022-08-17T05:39:21.728Z,19.56
2022-08-17T05:40:21.641Z,19.59
2022-08-17T05:41:21.564Z,19.62
2022-08-17T05:42:21.546Z,19.62
2022-08-17T05:43:21.881Z,19.36
2022-08-17T05:44:21.574Z,19.30
2022-08-17T05:45:28.096Z,19.27
2022-08-17T05:46:21.533Z,19.36
2022-08-17T05:47:21.611Z,19.36
2022-08-17T05:48:21.643Z,19.51
2022-08-17T05:49:21.775Z,19.76
2022-08-17T05:50:25.763Z,19.81
2022-08-17T05:51:21.763Z,19.91
2022-08-17T05:52:21.827Z,20.13
2022-08-17T05:53:21.822Z,20.19
2022-08-17T05:54:21.888Z,20.36
2022-08-17T05:55:22.048Z,20.40
2022-08-17T05:56:29.546Z,20.43
2022-08-17T05:57:21.729Z,20.48
2022-08-17T05:58:21.757Z,20.43
2022-08-17T05:59:22.607Z,20.31
2022-08-17T06:01:21.920Z,20.34
2022-08-17T06:02:22.044Z,20.43
2022-08-17T06:03:21.713Z,20.43
2022-08-17T06:04:21.887Z,20.51
2022-08-17T06:05:21.685Z,20.59
2022-08-17T06:06:21.625Z,20.62
2022-08-17T06:07:21.827Z,20.62
2022-08-17T06:08:21.785Z,20.58
2022-08-17T06:09:27.660Z,20.69
2022-08-17T06:10:21.527Z,20.77
2022-08-17T06:11:22.782Z,20.88
2022-08-17T06:12:21.550Z,20.80
2022-08-17T06:13:21.843Z,20.72
2022-08-17T06:14:21.698Z,20.75
2022-08-17T06:15:21.802Z,20.81
2022-08-17T06:16:33.224Z,20.92
2022-08-17T06:17:21.714Z,20.92
2022-08-17T06:18:21.728Z,20.82
2022-08-17T06:19:21.638Z,20.88
2022-08-17T06:20:21.965Z,20.75
2022-08-17T06:21:23.737Z,20.93
2022-08-17T06:22:21.431Z,20.95
2022-08-17T06:23:21.568Z,21.12
2022-08-17T06:24:21.726Z,21.15
2022-08-17T06:25:21.390Z,21.25
2022-08-17T06:26:21.659Z,21.37
2022-08-17T06:27:21.447Z,21.22
2022-08-17T06:28:21.515Z,21.32
2022-08-17T06:29:21.939Z,21.24
2022-08-17T06:30:21.386Z,21.30
2022-08-17T06:31:21.414Z,21.27
2022-08-17T06:32:21.435Z,21.42
2022-08-17T06:33:21.419Z,21.48
2022-08-17T06:34:21.380Z,21.45
2022-08-17T06:35:21.604Z,21.54
2022-08-17T06:36:21.659Z,21.60
2022-08-17T06:37:21.831Z,21.58
2022-08-17T06:38:37.934Z,21.72
2022-08-17T06:39:21.616Z,21.73
2022-08-17T06:40:21.554Z,21.88
2022-08-17T06:41:21.451Z,22.00
2022-08-17T06:43:05.243Z,22.15
2022-08-17T06:43:21.473Z,22.26
2022-08-17T06:44:43.630Z,22.33
2022-08-17T06:45:22.041Z,22.20
2022-08-17T06:46:21.298Z,22.00
2022-08-17T06:47:28.717Z,21.99
2022-08-17T06:48:21.340Z,22.02
2022-08-17T06:49:21.785Z,22.15
2022-08-17T06:50:21.732Z,22.23
2022-08-17T06:51:21.561Z,22.13
2022-08-17T06:52:45.520Z,22.28
2022-08-17T06:53:21.563Z,22.30
2022-08-17T06:54:21.582Z,22.26
2022-08-17T06:55:21.470Z,22.29
2022-08-17T06:56:21.552Z,22.38
2022-08-17T06:57:21.461Z,22.39
2022-08-17T06:58:21.493Z,22.66
2022-08-17T06:59:21.225Z,22.91
2022-08-17T07:00:21.541Z,23.05
2022-08-17T07:01:21.493Z,23.05
2022-08-17T07:02:29.465Z,23.24
2022-08-17T07:03:21.490Z,23.18
2022-08-17T07:04:21.214Z,23.36
2022-08-17T07:05:21.569Z,23.21
2022-08-17T07:06:21.434Z,23.27
2022-08-17T07:07:21.400Z,23.44
2022-08-17T07:08:22.689Z,23.51
2022-08-17T07:09:21.231Z,23.44
2022-08-17T07:10:21.548Z,23.32
2022-08-17T07:11:21.382Z,23.37
2022-08-17T07:12:21.173Z,23.27
2022-08-17T07:13:21.258Z,23.41
2022-08-17T07:14:21.721Z,23.44
2022-08-17T07:15:21.541Z,23.47
2022-08-17T07:16:21.384Z,23.43
2022-08-17T07:17:21.452Z,23.28
2022-08-17T07:18:21.345Z,23.36
2022-08-17T07:19:21.235Z,23.18
2022-08-17T07:20:21.496Z,23.37
2022-08-17T07:21:25.847Z,23.59
2022-08-17T07:22:21.317Z,23.63
2022-08-17T07:23:21.309Z,23.56
2022-08-17T07:24:26.349Z,23.71
2022-08-17T07:25:21.383Z,23.91
2022-08-17T07:26:21.263Z,24.01
2022-08-17T07:27:21.243Z,23.99
2022-08-17T07:28:21.151Z,24.02
2022-08-17T07:29:21.213Z,23.98
2022-08-17T07:30:21.435Z,24.11
2022-08-17T07:31:21.239Z,24.05
2022-08-17T07:32:21.265Z,24.26
2022-08-17T07:33:21.265Z,24.54
2022-08-17T07:34:21.168Z,24.54
2022-08-17T07:35:21.353Z,24.51
2022-08-17T07:36:21.460Z,24.54
2022-08-17T07:37:21.377Z,24.65
2022-08-17T07:38:24.906Z,24.85
2022-08-17T07:39:21.119Z,24.99
2022-08-17T07:40:21.314Z,25.18
2022-08-17T07:41:21.277Z,25.31
2022-08-17T07:42:21.472Z,25.23
2022-08-17T07:43:21.904Z,25.29
2022-08-17T07:44:21.543Z,25.32
2022-08-17T07:45:21.308Z,25.38
2022-08-17T07:46:21.324Z,25.58
2022-08-17T07:48:21.197Z,25.66
2022-08-17T07:49:21.108Z,25.68
2022-08-17T07:50:25.709Z,25.66
2022-08-17T07:51:21.203Z,25.72
2022-08-17T07:52:47.624Z,25.83
2022-08-17T07:53:21.225Z,26.13
2022-08-17T07:54:21.086Z,26.22
2022-08-17T07:55:21.117Z,26.21
2022-08-17T07:56:21.079Z,26.06
2022-08-17T07:57:21.095Z,26.09
2022-08-17T07:58:21.131Z,26.13
2022-08-17T07:59:23.944Z,26.31
2022-08-17T08:00:24.378Z,26.47
2022-08-17T08:01:21.152Z,26.68
2022-08-17T08:02:21.338Z,26.75
2022-08-17T08:03:21.240Z,26.71
2022-08-17T08:04:29.146Z,26.74
2022-08-17T08:05:46.706Z,26.78
2022-08-17T08:06:21.088Z,26.62
2022-08-17T08:07:21.076Z,26.66
2022-08-17T08:08:21.060Z,26.56
2022-08-17T08:09:21.199Z,26.77
2022-08-17T08:10:21.059Z,26.96
2022-08-17T08:11:21.082Z,27.14
2022-08-17T08:12:21.155Z,27.27
2022-08-17T08:13:21.110Z,27.36
2022-08-17T08:14:21.083Z,27.44
2022-08-17T08:15:21.044Z,27.45
2022-08-17T08:16:21.241Z,27.40
2022-08-17T08:17:21.093Z,27.36
2022-08-17T08:18:53.706Z,27.29
2022-08-17T08:20:42.441Z,27.49
2022-08-17T08:21:21.192Z,27.51
2022-08-17T08:22:21.280Z,27.64
2022-08-17T08:23:21.181Z,27.86
2022-08-17T08:24:21.085Z,27.98
2022-08-17T08:25:21.292Z,28.01
2022-08-17T08:26:21.098Z,28.10
2022-08-17T08:27:21.128Z,28.30
2022-08-17T08:28:21.117Z,28.44
2022-08-17T08:29:21.294Z,28.64
2022-08-17T08:30:21.263Z,28.93
2022-08-17T08:31:21.057Z,29.16
2022-08-17T08:32:21.291Z,29.14
2022-08-17T08:33:21.112Z,29.20
2022-08-17T08:34:45.013Z,28.98
2022-08-17T08:35:21.110Z,29.05
2022-08-17T08:37:12.771Z,28.98
2022-08-17T08:37:32.577Z,29.32
2022-08-17T08:38:21.077Z,29.68
2022-08-17T08:40:21.771Z,29.93
2022-08-17T08:41:21.575Z,30.10
2022-08-17T08:42:22.102Z,30.34
2022-08-17T08:43:21.426Z,30.57
2022-08-17T08:44:21.471Z,30.75
2022-08-17T08:45:21.309Z,31.00
2022-08-17T08:46:21.079Z,31.05
2022-08-17T08:47:21.291Z,31.24
2022-08-17T08:48:23.031Z,31.02
2022-08-17T08:49:33.810Z,30.43
2022-08-17T08:50:38.145Z,30.05
2022-08-17T08:51:21.075Z,30.21
2022-08-17T08:52:21.078Z,30.44
2022-08-17T08:53:21.086Z,30.44
2022-08-17T08:54:26.802Z,30.70
2022-08-17T08:55:21.436Z,30.87
2022-08-17T08:56:21.109Z,31.07
2022-08-17T08:57:27.992Z,31.27
2022-08-17T08:58:32.302Z,31.28
2022-08-17T08:59:21.120Z,31.15
2022-08-17T09:00:21.228Z,31.15
2022-08-17T09:01:21.144Z,31.21
2022-08-17T09:02:21.102Z,31.09
2022-08-17T09:03:31.576Z,31.18
2022-08-17T09:04:25.162Z,31.15
2022-08-17T09:05:21.097Z,31.10
2022-08-17T09:06:33.282Z,31.20
2022-08-17T09:07:21.101Z,31.36
2022-08-17T09:08:21.114Z,31.21
2022-08-17T09:09:21.104Z,31.39
2022-08-17T09:10:21.101Z,31.71
2022-08-17T09:11:21.158Z,31.96
2022-08-17T09:12:21.118Z,32.23
2022-08-17T09:13:21.113Z,32.04
2022-08-17T09:14:28.203Z,32.12
2022-08-17T09:15:21.098Z,32.23
2022-08-17T09:16:21.123Z,31.40
2022-08-17T09:17:21.141Z,31.29
2022-08-17T09:19:01.610Z,31.33
2022-08-17T09:19:21.114Z,31.55
2022-08-17T09:20:28.182Z,31.76
2022-08-17T09:21:21.368Z,32.04
2022-08-17T09:22:21.109Z,32.15
2022-08-17T09:23:21.122Z,32.16
2022-08-17T09:24:21.135Z,32.09
2022-08-17T09:25:21.144Z,31.99
2022-08-17T09:26:21.128Z,32.07
2022-08-17T09:27:21.121Z,32.37
2022-08-17T09:28:21.134Z,32.45
2022-08-17T09:29:21.139Z,32.64
2022-08-17T09:30:21.128Z,32.83
2022-08-17T09:31:21.158Z,32.90
2022-08-17T09:32:21.158Z,32.77
2022-08-17T09:33:21.147Z,32.64
2022-08-17T09:34:21.131Z,32.82
2022-08-17T09:35:21.243Z,33.00
2022-08-17T09:36:21.152Z,33.15
2022-08-17T09:37:21.170Z,33.01
2022-08-17T09:38:21.146Z,32.85
2022-08-17T09:39:21.182Z,33.00
2022-08-17T09:40:21.232Z,32.82
2022-08-17T09:41:21.337Z,32.89
2022-08-17T09:42:21.151Z,33.12
2022-08-17T09:43:21.157Z,33.40
2022-08-17T09:44:23.222Z,33.43
2022-08-17T09:45:21.383Z,33.42
2022-08-17T09:46:21.170Z,33.40
2022-08-17T09:47:21.163Z,33.45
2022-08-17T09:48:21.163Z,33.55
2022-08-17T09:49:25.156Z,33.58
2022-08-17T09:51:03.914Z,33.76
2022-08-17T09:51:21.177Z,33.99
2022-08-17T09:52:21.192Z,34.25
2022-08-17T09:53:21.159Z,34.03
2022-08-17T09:54:38.470Z,33.32
2022-08-17T09:55:21.189Z,32.77
2022-08-17T09:56:21.416Z,32.55
2022-08-17T09:57:36.101Z,32.27
2022-08-17T09:58:21.201Z,32.18
2022-08-17T09:59:21.197Z,31.92
2022-08-17T10:00:21.180Z,31.74
2022-08-17T10:01:21.506Z,31.89
2022-08-17T10:02:21.451Z,31.96
2022-08-17T10:03:21.193Z,32.01
2022-08-17T10:04:23.757Z,31.93
2022-08-17T10:05:21.196Z,31.85
2022-08-17T10:06:22.363Z,31.77
2022-08-17T10:07:21.213Z,32.07
2022-08-17T10:08:21.719Z,32.22
2022-08-17T10:09:23.235Z,32.23
2022-08-17T10:10:21.921Z,32.55
2022-08-17T10:11:21.458Z,32.60
2022-08-17T10:12:21.252Z,32.36
2022-08-17T10:13:21.227Z,32.38
2022-08-17T10:14:36.822Z,32.41
2022-08-17T10:15:21.223Z,32.52
2022-08-17T10:16:21.219Z,32.58
2022-08-17T10:17:21.209Z,32.71
2022-08-17T10:18:21.217Z,32.80
2022-08-17T10:19:21.259Z,32.89
2022-08-17T10:20:21.213Z,32.89
2022-08-17T10:21:21.257Z,32.92
2022-08-17T10:22:35.211Z,33.12
2022-08-17T10:23:21.447Z,33.04
2022-08-17T10:24:21.232Z,32.90
2022-08-17T10:25:24.195Z,32.70
2022-08-17T10:26:21.229Z,32.56
2022-08-17T10:27:21.240Z,32.48
2022-08-17T10:28:24.686Z,32.48
2022-08-17T10:29:21.600Z,32.38
2022-08-17T10:30:21.711Z,32.49
2022-08-17T10:31:36.924Z,32.59
2022-08-17T10:32:21.256Z,32.45
2022-08-17T10:33:21.236Z,32.53
2022-08-17T10:34:21.239Z,32.45
2022-08-17T10:35:21.248Z,32.63
2022-08-17T10:36:21.247Z,32.60
2022-08-17T10:37:21.248Z,32.73
2022-08-17T10:38:21.522Z,32.58
2022-08-17T10:39:21.245Z,32.41
2022-08-17T10:40:21.327Z,32.43
2022-08-17T10:41:21.264Z,32.43
2022-08-17T10:42:30.301Z,32.48
2022-08-17T10:43:21.272Z,32.58
2022-08-17T10:44:39.216Z,32.36
2022-08-17T10:45:21.277Z,32.26
2022-08-17T10:46:30.863Z,32.37
2022-08-17T10:47:21.267Z,32.53
2022-08-17T10:48:21.280Z,32.68
2022-08-17T10:49:21.268Z,32.56
2022-08-17T10:50:21.271Z,32.29
2022-08-17T10:51:21.268Z,32.34
2022-08-17T10:52:21.268Z,32.53
2022-08-17T10:53:21.272Z,32.60
2022-08-17T10:54:21.283Z,32.64
2022-08-17T10:55:21.288Z,32.82
2022-08-17T10:56:21.289Z,32.73
2022-08-17T10:57:21.283Z,32.82
2022-08-17T10:58:21.296Z,32.58
2022-08-17T10:59:21.997Z,32.31
2022-08-17T11:00:27.042Z,32.33
2022-08-17T11:01:21.341Z,32.49
2022-08-17T11:02:21.314Z,32.29
2022-08-17T11:03:21.315Z,32.19
2022-08-17T11:04:21.294Z,32.37
2022-08-17T11:05:21.295Z,32.48
2022-08-17T11:06:21.307Z,32.41
2022-08-17T11:07:21.300Z,32.40
2022-08-17T11:08:21.505Z,32.53
2022-08-17T11:09:21.321Z,32.36
2022-08-17T11:10:21.325Z,32.38
2022-08-17T11:11:21.298Z,32.38
2022-08-17T11:12:21.322Z,32.45
2022-08-17T11:13:21.315Z,32.49
2022-08-17T11:14:21.316Z,32.65
2022-08-17T11:15:21.798Z,32.52
2022-08-17T11:16:21.322Z,32.21
2022-08-17T11:17:21.315Z,32.23
2022-08-17T11:18:21.322Z,32.23
2022-08-17T11:19:21.330Z,32.27
2022-08-17T11:20:21.317Z,32.14
2022-08-17T11:21:21.351Z,32.03
2022-08-17T11:22:21.682Z,31.80
2022-08-17T11:23:21.340Z,31.80
2022-08-17T11:24:21.347Z,31.78
2022-08-17T11:25:21.320Z,32.00
2022-08-17T11:26:21.323Z,32.19
2022-08-17T11:27:21.331Z,32.15
2022-08-17T11:28:21.342Z,32.16
2022-08-17T11:29:21.350Z,32.12
2022-08-17T11:30:21.335Z,32.16
2022-08-17T11:31:21.364Z,32.27
2022-08-17T11:32:21.364Z,32.40
2022-08-17T11:33:21.354Z,32.64
2022-08-17T11:34:21.657Z,32.63
2022-08-17T11:35:25.134Z,32.67
2022-08-17T11:36:21.461Z,32.78
2022-08-17T11:37:21.652Z,32.96
2022-08-17T11:39:21.504Z,33.34
2022-08-17T11:40:21.533Z,33.22
2022-08-17T11:41:21.745Z,33.24
2022-08-17T11:42:21.638Z,32.97
2022-08-17T11:43:22.097Z,32.80
2022-08-17T11:44:21.768Z,32.78
2022-08-17T11:45:32.139Z,32.77
2022-08-17T11:46:21.901Z,32.90
2022-08-17T11:47:21.871Z,32.92
2022-08-17T11:48:28.157Z,32.77
2022-08-17T11:49:21.392Z,32.75
2022-08-17T11:50:25.724Z,33.04
2022-08-17T11:51:21.403Z,33.15
2022-08-17T11:52:21.374Z,33.24
2022-08-17T11:53:21.373Z,33.30
2022-08-17T11:54:32.951Z,33.28
2022-08-17T11:55:35.419Z,33.40
2022-08-17T11:56:21.374Z,33.36
2022-08-17T11:57:21.405Z,33.40
2022-08-17T11:58:21.411Z,33.28
2022-08-17T11:59:21.389Z,33.45
2022-08-17T12:00:21.400Z,33.34
2022-08-17T12:01:21.438Z,33.22
2022-08-17T12:02:21.400Z,33.14
2022-08-17T12:03:21.445Z,33.30
2022-08-17T12:04:21.446Z,33.40
2022-08-17T12:05:21.620Z,33.62
2022-08-17T12:06:21.429Z,33.58
2022-08-17T12:07:21.401Z,33.52
2022-08-17T12:08:21.412Z,33.05
2022-08-17T12:09:21.462Z,32.83
2022-08-17T12:10:21.718Z,32.86
2022-08-17T12:11:55.101Z,32.70
2022-08-17T12:12:21.624Z,32.64
2022-08-17T12:13:21.452Z,32.60
2022-08-17T12:14:29.527Z,32.52
2022-08-17T12:15:21.437Z,32.38
2022-08-17T12:16:21.423Z,32.33
2022-08-17T12:17:39.258Z,32.26
2022-08-17T12:18:21.418Z,32.41
2022-08-17T12:19:21.416Z,32.64
2022-08-17T12:20:21.621Z,32.70
2022-08-17T12:21:21.443Z,32.67
2022-08-17T12:22:21.576Z,32.83
2022-08-17T12:23:21.424Z,33.05
2022-08-17T12:24:21.812Z,33.12
2022-08-17T12:25:21.439Z,33.12
2022-08-17T12:26:21.467Z,33.15
2022-08-17T12:27:21.427Z,33.28
2022-08-17T12:28:21.868Z,33.36
2022-08-17T12:29:38.325Z,33.40
2022-08-17T12:30:21.503Z,33.23
2022-08-17T12:31:21.628Z,33.14
2022-08-17T12:32:21.471Z,33.07
2022-08-17T12:33:28.046Z,32.82
2022-08-17T12:34:21.474Z,32.82
2022-08-17T12:35:21.441Z,32.83
2022-08-17T12:36:21.446Z,33.11
2022-08-17T12:37:21.482Z,33.00
2022-08-17T12:38:30.407Z,33.00
2022-08-17T12:39:21.601Z,33.00
2022-08-17T12:40:21.455Z,33.08
2022-08-17T12:41:21.474Z,32.97
2022-08-17T12:42:21.467Z,33.01
2022-08-17T12:43:21.467Z,33.22
2022-08-17T12:44:21.462Z,33.12
2022-08-17T12:45:21.481Z,33.22
2022-08-17T12:46:21.468Z,33.19
2022-08-17T12:47:23.031Z,33.28
2022-08-17T12:48:21.497Z,33.46
2022-08-17T12:49:21.537Z,33.65
2022-08-17T12:50:28.278Z,33.64
2022-08-17T12:51:21.503Z,33.79
2022-08-17T12:52:21.492Z,33.80
2022-08-17T12:53:21.528Z,33.76
2022-08-17T12:54:21.476Z,33.80
2022-08-17T12:55:21.484Z,33.55
2022-08-17T12:56:21.494Z,33.20
2022-08-17T12:57:21.694Z,32.80
2022-08-17T12:58:21.490Z,32.59
2022-08-17T12:59:30.106Z,32.65
2022-08-17T13:00:21.510Z,32.87